East Lewisburg, Pennsylvania
Current Conditions -  °F | °C
As of 3:53 AM on Friday 24 Oct 2014 (Local Time) from KSEG Reporting Station
Overcast Overcast  
Wind Chill: 56°   Ceiling: 3400
Heat Index: 56°   Visibility: 10mi
Dew Point: 43°   Wind: 8mph
Humidity: 62%   Direction: 330°NNW
Pressure: 29.92"   Gusts: NA
Location:  41.0147°N, 76.8093°W
Report Text: KSEG 240753Z AUTO 33007KT 10SM OVC034 13/06 A2992 RMK AO2 SLP132 T01330061
Loading
Personal Weather Stations






























Interactive Weather Map
Tropical Storm Tracking
New forecast layout! Learn more

10-Day Weather Forecast

Advertisements
Track Severe Weather on mobile